createdAt,value
2019-03-12T00:01:47.525Z,99775.80
2019-03-12T00:04:17.824Z,99776.36
2019-03-12T00:06:48.599Z,99773.88
2019-03-12T00:09:18.892Z,99775.04
2019-03-12T00:11:49.460Z,99773.52
2019-03-12T00:14:20.667Z,99778.52
2019-03-12T00:16:52.963Z,99784.20
2019-03-12T00:19:23.804Z,99793.02
2019-03-12T00:21:54.738Z,99792.22
2019-03-12T00:24:24.924Z,99795.44
2019-03-12T00:26:55.160Z,99796.82
2019-03-12T00:29:25.402Z,99798.14
2019-03-12T00:31:57.579Z,99798.34
2019-03-12T00:34:27.849Z,99801.53
2019-03-12T00:36:59.148Z,99806.03
2019-03-12T00:39:30.342Z,99804.85
2019-03-12T00:42:02.032Z,99812.35
2019-03-12T00:44:32.312Z,99810.19
2019-03-12T00:47:03.535Z,99811.02
2019-03-12T00:49:33.787Z,99811.42
2019-03-12T00:52:04.323Z,99817.40
2019-03-12T00:54:35.172Z,99811.28
2019-03-12T00:57:06.866Z,99809.49
2019-03-12T00:59:37.412Z,99807.72
2019-03-12T01:02:08.436Z,99806.03
2019-03-12T01:04:38.697Z,99811.02
2019-03-12T01:07:08.975Z,99809.96
2019-03-12T01:09:39.651Z,99809.13
2019-03-12T01:12:11.011Z,99808.78
2019-03-12T01:14:41.247Z,99808.08
2019-03-12T01:17:13.224Z,99811.96
2019-03-12T01:19:44.003Z,99800.42
2019-03-12T01:22:14.302Z,99803.23
2019-03-12T01:24:46.172Z,99797.22
2019-03-12T01:27:16.488Z,99802.66
2019-03-12T01:29:47.136Z,99800.09
2019-03-12T01:32:17.444Z,99801.88
2019-03-12T01:34:47.936Z,99800.03
2019-03-12T01:37:18.187Z,99800.91
2019-03-12T01:39:48.920Z,99803.05
2019-03-12T01:42:19.154Z,99802.09
2019-03-12T01:44:50.124Z,99802.20
2019-03-12T01:47:20.415Z,99811.86
2019-03-12T01:49:50.685Z,99809.30
2019-03-12T01:52:22.289Z,99811.93
2019-03-12T01:54:52.560Z,99807.98
2019-03-12T01:57:22.843Z,99812.86
2019-03-12T01:59:53.384Z,99807.27
2019-03-12T02:02:26.573Z,99808.17
2019-03-12T02:04:57.719Z,99805.63
2019-03-12T02:07:28.042Z,99803.45
2019-03-12T02:09:58.580Z,99808.64
2019-03-12T02:12:29.003Z,99804.30
2019-03-12T02:14:59.262Z,99801.68
2019-03-12T02:17:29.758Z,99793.99
2019-03-12T02:20:00.433Z,99798.06
2019-03-12T02:22:31.548Z,99802.97
2019-03-12T02:25:02.804Z,99802.04
2019-03-12T02:27:33.086Z,99805.13
2019-03-12T02:30:03.262Z,99798.58
2019-03-12T02:32:34.665Z,99803.77
2019-03-12T02:35:05.759Z,99804.28
2019-03-12T02:37:36.254Z,99808.23
2019-03-12T02:40:07.215Z,99806.05
2019-03-12T02:42:38.047Z,99806.38
2019-03-12T02:45:08.997Z,99809.29
2019-03-12T02:47:39.377Z,99803.23
2019-03-12T02:50:10.649Z,99792.23
2019-03-12T02:52:41.130Z,99791.81
2019-03-12T02:55:12.823Z,99782.17
2019-03-12T02:57:43.424Z,99783.92
2019-03-12T03:00:21.044Z,99779.07
2019-03-12T03:02:51.578Z,99780.53
2019-03-12T03:05:21.941Z,99778.03
2019-03-12T03:07:56.099Z,99775.98
2019-03-12T03:10:26.402Z,99765.92
2019-03-12T03:12:56.965Z,99765.13
2019-03-12T03:15:30.609Z,99770.80
2019-03-12T03:19:38.276Z,99765.52
2019-03-12T03:22:08.680Z,99762.63
2019-03-12T03:24:38.919Z,99770.95
2019-03-12T03:27:09.228Z,99775.75
2019-03-12T03:29:39.454Z,99770.78
2019-03-12T03:32:09.698Z,99768.38
2019-03-12T03:34:40.241Z,99769.37
2019-03-12T03:37:10.511Z,99761.19
2019-03-12T03:39:41.904Z,99764.56
2019-03-12T03:42:14.581Z,99754.97
2019-03-12T03:44:45.217Z,99745.30
2019-03-12T03:47:19.534Z,99741.91
2019-03-12T03:49:47.492Z,99736.83
2019-03-12T03:52:17.760Z,99738.10
2019-03-12T03:54:48.655Z,99739.06
2019-03-12T03:57:18.860Z,99733.34
2019-03-12T03:59:49.680Z,99735.63
2019-03-12T04:02:20.105Z,99745.73
2019-03-12T04:04:50.948Z,99736.64
2019-03-12T04:07:23.193Z,99733.58
2019-03-12T04:09:55.289Z,99730.95
2019-03-12T04:12:26.841Z,99738.61
2019-03-12T04:14:57.421Z,99738.55
2019-03-12T04:17:34.072Z,99737.59
2019-03-12T04:20:05.850Z,99737.08
2019-03-12T04:22:36.741Z,99723.88
2019-03-12T04:25:07.817Z,99724.75
2019-03-12T04:27:39.165Z,99716.42
2019-03-12T04:30:12.021Z,99715.62
2019-03-12T04:32:42.320Z,99704.37
2019-03-12T04:35:14.296Z,99702.66
2019-03-12T04:37:46.553Z,99699.19
2019-03-12T04:40:17.447Z,99697.88
2019-03-12T04:42:48.560Z,99690.57
2019-03-12T04:45:19.108Z,99685.34
2019-03-12T04:47:49.378Z,99686.19
2019-03-12T04:50:19.973Z,99676.50
2019-03-12T04:52:50.270Z,99674.36
2019-03-12T04:55:21.121Z,99669.38
2019-03-12T04:57:51.829Z,99665.03
2019-03-12T05:00:22.358Z,99655.89
2019-03-12T05:02:53.123Z,99658.20
2019-03-12T05:05:23.360Z,99650.17
2019-03-12T05:07:53.975Z,99656.36
2019-03-12T05:10:24.306Z,99655.97
2019-03-12T05:12:54.580Z,99654.17
2019-03-12T05:15:25.168Z,99658.22
2019-03-12T05:17:55.457Z,99656.14
2019-03-12T05:20:26.536Z,99643.84
2019-03-12T05:22:57.444Z,99639.80
2019-03-12T05:25:27.832Z,99642.59
2019-03-12T05:27:58.908Z,99636.17
2019-03-12T05:30:29.228Z,99628.45
2019-03-12T05:33:00.479Z,99620.63
2019-03-12T05:35:31.747Z,99614.08
2019-03-12T05:38:04.071Z,99614.16
2019-03-12T05:40:34.353Z,99610.72
2019-03-12T05:43:05.805Z,99610.28
2019-03-12T05:45:37.047Z,99611.35
2019-03-12T05:48:07.507Z,99603.70
2019-03-12T05:50:37.792Z,99598.13
2019-03-12T05:53:13.787Z,99603.15
2019-03-12T05:55:44.072Z,99591.08
2019-03-12T05:58:14.622Z,99594.27
2019-03-12T06:00:44.964Z,99592.04
2019-03-12T06:03:15.228Z,99586.50
2019-03-12T06:05:45.805Z,99585.61
2019-03-12T06:08:16.357Z,99586.76
2019-03-12T06:10:47.564Z,99589.05
2019-03-12T06:13:17.833Z,99583.93
2019-03-12T06:15:48.210Z,99586.16
2019-03-12T06:18:19.052Z,99582.45
2019-03-12T06:20:49.896Z,99586.47
2019-03-12T06:23:20.459Z,99586.08
2019-03-12T06:25:50.746Z,99589.66
2019-03-12T06:28:22.974Z,99587.17
2019-03-12T06:31:24.982Z,99592.77
2019-03-12T06:34:04.932Z,99585.41
2019-03-12T06:36:51.792Z,99586.16
2019-03-12T06:39:43.080Z,99587.85
2019-03-12T06:42:22.143Z,99580.68
2019-03-12T06:45:17.155Z,99573.56
2019-03-12T06:48:09.609Z,99570.69
2019-03-12T06:50:47.389Z,99574.74
2019-03-12T06:53:37.091Z,99567.13
2019-03-12T06:56:32.271Z,99558.98
2019-03-12T06:59:34.595Z,99567.28
2019-03-12T07:02:21.703Z,99566.15
2019-03-12T07:05:09.314Z,99549.59
2019-03-12T07:07:53.131Z,99553.34
2019-03-12T07:10:41.051Z,99542.23
2019-03-12T07:13:16.418Z,99543.67
2019-03-12T07:16:03.047Z,99537.73
2019-03-12T07:18:51.527Z,99530.84
2019-03-12T07:21:40.819Z,99521.16
2019-03-12T07:24:27.756Z,99517.28
2019-03-12T07:27:05.360Z,99512.65
2019-03-12T07:30:13.212Z,99506.20
2019-03-12T07:32:49.111Z,99504.13
2019-03-12T07:35:29.556Z,99498.33
2019-03-12T07:38:19.397Z,99498.83
2019-03-12T07:41:25.142Z,99495.77
2019-03-12T07:44:02.152Z,99489.84
2019-03-12T07:46:40.213Z,99496.84
2019-03-12T07:49:38.317Z,99495.87
2019-03-12T07:52:16.487Z,99497.87
2019-03-12T07:55:21.371Z,99482.56
2019-03-12T07:58:07.411Z,99481.16
2019-03-12T08:00:56.842Z,99477.09
2019-03-12T08:03:38.471Z,99475.01
2019-03-12T08:06:27.668Z,99467.57
2019-03-12T08:09:11.159Z,99465.45
2019-03-12T08:11:46.879Z,99457.92
2019-03-12T08:14:45.230Z,99451.20
2019-03-12T08:17:22.675Z,99447.81
2019-03-12T08:20:10.946Z,99438.66
2019-03-12T08:22:51.155Z,99431.27
2019-03-12T08:25:27.230Z,99428.77
2019-03-12T08:28:10.713Z,99424.97
2019-03-12T08:30:59.875Z,99417.75
2019-03-12T08:33:50.501Z,99409.12
2019-03-12T08:36:50.245Z,99412.53
2019-03-12T08:39:39.597Z,99410.14
2019-03-12T08:42:27.525Z,99402.03
2019-03-12T08:45:11.082Z,99388.25
2019-03-12T08:47:57.843Z,99379.02
2019-03-12T08:50:43.904Z,99375.94
2019-03-12T08:53:31.882Z,99377.18
2019-03-12T08:56:36.170Z,99360.02
2019-03-12T08:59:28.354Z,99353.37
2019-03-12T09:02:17.630Z,99358.95
2019-03-12T09:05:22.427Z,99346.20
2019-03-12T09:08:20.754Z,99345.80
2019-03-12T09:11:10.068Z,99331.31
2019-03-12T09:13:56.680Z,99329.36
2019-03-12T09:16:38.344Z,99318.28
2019-03-12T09:19:31.431Z,99318.28
2019-03-12T09:22:16.582Z,99322.05
2019-03-12T09:25:12.239Z,99309.68
2019-03-12T09:28:12.218Z,99300.06
2019-03-12T09:30:54.090Z,99298.46
2019-03-12T09:33:33.079Z,99279.59
2019-03-12T09:36:16.246Z,99273.59
2019-03-12T09:38:51.942Z,99276.05
2019-03-12T09:41:44.656Z,99264.23
2019-03-12T09:44:29.252Z,99258.48
2019-03-12T09:47:10.426Z,99250.90
2019-03-12T09:50:00.551Z,99241.09
2019-03-12T09:52:47.079Z,99237.18
2019-03-12T09:55:35.207Z,99230.67
2019-03-12T09:58:27.773Z,99226.27
2019-03-12T10:01:09.303Z,99216.34
2019-03-12T10:03:45.428Z,99214.09
2019-03-12T10:06:43.724Z,99211.77
2019-03-12T10:09:40.140Z,99211.28
2019-03-12T10:12:26.821Z,99211.62
2019-03-12T10:15:22.498Z,99201.61
2019-03-12T10:18:02.451Z,99193.05
2019-03-12T10:20:50.703Z,99190.78
2019-03-12T10:23:36.369Z,99187.63
2019-03-12T10:26:24.697Z,99172.05
2019-03-12T10:29:04.155Z,99166.78
2019-03-12T10:31:56.212Z,99158.77
2019-03-12T10:34:51.500Z,99156.97
2019-03-12T10:37:43.543Z,99157.21
2019-03-12T10:40:32.464Z,99158.55
2019-03-12T10:43:37.996Z,99148.70
2019-03-12T10:46:22.649Z,99140.39
2019-03-12T10:48:53.307Z,99125.68
2019-03-12T10:51:24.526Z,99118.20
2019-03-12T10:53:54.821Z,99118.47
2019-03-12T10:56:26.122Z,99116.29
2019-03-12T10:58:56.821Z,99115.27
2019-03-12T11:01:27.798Z,99115.50
2019-03-12T11:03:58.537Z,99115.11
2019-03-12T11:06:29.159Z,99104.35
2019-03-12T11:08:59.437Z,99106.80
2019-03-12T11:11:30.819Z,99095.13
2019-03-12T11:14:01.083Z,99086.55
2019-03-12T11:16:31.282Z,99087.06
2019-03-12T11:19:01.544Z,99079.23
2019-03-12T11:21:32.238Z,99074.23
2019-03-12T11:24:02.840Z,99070.02
2019-03-12T11:26:33.400Z,99058.27
2019-03-12T11:29:03.665Z,99047.97
2019-03-12T11:31:34.464Z,99040.53
2019-03-12T11:34:05.124Z,99039.27
2019-03-12T11:36:35.743Z,99034.72
2019-03-12T11:39:06.427Z,99030.67
2019-03-12T11:41:39.044Z,99028.58
2019-03-12T11:44:09.503Z,99013.50
2019-03-12T11:46:44.310Z,99012.58
2019-03-12T11:49:11.823Z,99001.93
2019-03-12T11:51:42.213Z,98997.50
2019-03-12T11:54:13.090Z,98991.60
2019-03-12T11:56:43.914Z,98983.78
2019-03-12T11:59:14.560Z,98973.06
2019-03-12T12:01:45.434Z,98965.73
2019-03-12T12:04:15.686Z,98966.11
2019-03-12T12:06:46.008Z,98958.30
2019-03-12T12:09:16.389Z,98953.33
2019-03-12T12:11:46.627Z,98944.97
2019-03-12T12:14:16.811Z,98946.39
2019-03-12T12:16:47.371Z,98927.17
2019-03-12T12:19:18.212Z,98924.70
2019-03-12T12:21:48.948Z,98913.61
2019-03-12T12:24:19.127Z,98903.11
2019-03-12T12:26:49.383Z,98897.12
2019-03-12T12:29:19.608Z,98886.20
2019-03-12T12:31:49.930Z,98871.13
2019-03-12T12:34:20.984Z,98859.28
2019-03-12T12:36:51.297Z,98853.35
2019-03-12T12:39:22.311Z,98851.51
2019-03-12T12:41:52.940Z,98852.27
2019-03-12T12:44:23.137Z,98845.14
2019-03-12T12:46:53.512Z,98835.44
2019-03-12T12:49:23.807Z,98828.80
2019-03-12T12:51:54.475Z,98823.19
2019-03-12T12:54:24.740Z,98816.92
2019-03-12T12:56:55.326Z,98811.35
2019-03-12T12:59:25.859Z,98800.86
2019-03-12T13:01:56.386Z,98787.38
2019-03-12T13:04:27.165Z,98781.47
2019-03-12T13:06:57.448Z,98773.97
2019-03-12T13:09:27.706Z,98765.73
2019-03-12T13:11:57.916Z,98764.72
2019-03-12T13:14:40.695Z,98758.05
2019-03-12T13:17:00.076Z,98754.45
2019-03-12T13:19:30.725Z,98748.06
2019-03-12T13:22:01.511Z,98736.52
2019-03-12T13:24:32.449Z,98732.34
2019-03-12T13:27:03.339Z,98722.66
2019-03-12T13:29:33.589Z,98724.29
2019-03-12T13:32:13.340Z,98713.25
2019-03-12T13:34:35.878Z,98706.41
2019-03-12T13:37:06.328Z,98702.59
2019-03-12T13:39:36.526Z,98693.89
2019-03-12T13:42:07.137Z,98684.15
2019-03-12T13:44:37.753Z,98681.87
2019-03-12T13:47:07.972Z,98669.48
2019-03-12T13:49:39.664Z,98662.28
2019-03-12T13:52:09.943Z,98652.23
2019-03-12T13:54:40.681Z,98644.06
2019-03-12T13:57:11.527Z,98649.84
2019-03-12T13:59:42.064Z,98634.12
2019-03-12T14:02:12.443Z,98629.47
2019-03-12T14:04:43.161Z,98623.69
2019-03-12T14:07:13.865Z,98615.95
2019-03-12T14:09:45.354Z,98600.93
2019-03-12T14:12:17.441Z,98596.88
2019-03-12T14:14:48.523Z,98592.57
2019-03-12T14:17:19.553Z,98582.87
2019-03-12T14:19:50.495Z,98578.09
2019-03-12T14:22:21.552Z,98573.91
2019-03-12T14:24:51.896Z,98561.55
2019-03-12T14:27:24.484Z,98554.48
2019-03-12T14:29:54.667Z,98548.56
2019-03-12T14:32:26.319Z,98538.88
2019-03-12T14:34:56.767Z,98532.97
2019-03-12T14:37:27.403Z,98523.98
2019-03-12T14:39:58.657Z,98521.36
2019-03-12T14:42:29.290Z,98504.16
2019-03-12T14:45:00.437Z,98510.07
2019-03-12T14:47:31.096Z,98490.52
2019-03-12T14:50:01.662Z,98485.27
2019-03-12T14:52:36.703Z,98483.84
2019-03-12T14:55:07.572Z,98486.84
2019-03-12T14:57:37.852Z,98476.93
2019-03-12T15:00:14.324Z,98468.33
2019-03-12T15:02:46.381Z,98457.02
2019-03-12T15:05:17.018Z,98443.76
2019-03-12T15:07:47.840Z,98449.14
2019-03-12T15:10:18.124Z,98442.55
2019-03-12T15:12:49.023Z,98437.87
2019-03-12T15:15:19.319Z,98430.66
2019-03-12T15:17:49.870Z,98425.45
2019-03-12T15:20:21.736Z,98415.14
2019-03-12T15:22:52.673Z,98407.52
2019-03-12T15:25:23.131Z,98389.70
2019-03-12T15:27:53.433Z,98392.23
2019-03-12T15:30:23.711Z,98389.28
2019-03-12T15:32:54.373Z,98387.94
2019-03-12T15:35:25.214Z,98370.58
2019-03-12T15:37:55.379Z,98368.74
2019-03-12T15:40:26.996Z,98355.27
2019-03-12T15:42:57.658Z,98352.48
2019-03-12T15:45:28.762Z,98354.76
2019-03-12T15:47:58.941Z,98345.92
2019-03-12T15:50:30.032Z,98339.34
2019-03-12T15:53:00.339Z,98342.08
2019-03-12T15:55:31.613Z,98328.58
2019-03-12T15:58:01.875Z,98321.92
2019-03-12T16:00:33.013Z,98318.84
2019-03-12T16:03:03.242Z,98308.50
2019-03-12T16:05:33.548Z,98309.11
2019-03-12T16:08:03.835Z,98305.77
2019-03-12T16:10:34.055Z,98295.52
2019-03-12T16:13:07.574Z,98287.43
2019-03-12T16:15:37.777Z,98292.53
2019-03-12T16:18:08.577Z,98281.59
2019-03-12T16:20:40.802Z,98282.68
2019-03-12T16:23:11.070Z,98283.77
2019-03-12T16:25:41.331Z,98281.72
2019-03-12T16:28:12.754Z,98276.67
2019-03-12T16:30:44.039Z,98264.13
2019-03-12T16:33:14.671Z,98263.31
2019-03-12T16:35:45.291Z,98261.44
2019-03-12T16:38:15.936Z,98254.38
2019-03-12T16:40:47.080Z,98245.69
2019-03-12T16:43:17.690Z,98244.48
2019-03-12T16:45:47.937Z,98239.80
2019-03-12T16:48:18.567Z,98244.12
2019-03-12T16:50:49.398Z,98237.45
2019-03-12T16:53:20.853Z,98228.27
2019-03-12T16:55:52.317Z,98222.48
2019-03-12T16:58:23.714Z,98213.35
2019-03-12T17:00:56.239Z,98212.58
2019-03-12T17:03:26.978Z,98207.19
2019-03-12T17:05:59.198Z,98203.27
2019-03-12T17:08:30.306Z,98195.41
2019-03-12T17:11:03.005Z,98185.88
2019-03-12T17:13:38.828Z,98178.66
2019-03-12T17:16:09.155Z,98166.63
2019-03-12T17:18:39.437Z,98169.37
2019-03-12T17:21:09.728Z,98162.43
2019-03-12T17:23:40.370Z,98153.03
2019-03-12T17:26:11.028Z,98150.98
2019-03-12T17:28:41.728Z,98142.67
2019-03-12T17:31:12.250Z,98151.25
2019-03-12T17:33:42.995Z,98148.53
2019-03-12T17:36:13.413Z,98135.09
2019-03-12T17:38:47.168Z,98129.56
2019-03-12T17:41:17.711Z,98138.67
2019-03-12T17:43:49.374Z,98122.58
2019-03-12T17:46:20.013Z,98119.11
2019-03-12T17:48:50.465Z,98126.38
2019-03-12T17:51:20.801Z,98120.59
2019-03-12T17:53:51.010Z,98112.81
2019-03-12T17:56:21.319Z,98111.83
2019-03-12T17:58:52.138Z,98105.31
2019-03-12T18:01:29.827Z,98101.34
2019-03-12T18:03:56.416Z,98096.16
2019-03-12T18:06:27.718Z,98084.15
2019-03-12T18:08:58.431Z,98089.48
2019-03-12T18:11:28.761Z,98078.81
2019-03-12T18:13:59.920Z,98073.67
2019-03-12T18:16:40.333Z,98077.03
2019-03-12T18:19:02.184Z,98074.36
2019-03-12T18:21:32.839Z,98077.30
2019-03-12T18:24:03.114Z,98069.41
2019-03-12T18:26:33.376Z,98061.63
2019-03-12T18:29:03.856Z,98049.77
2019-03-12T18:31:34.169Z,98042.90
2019-03-12T18:34:04.322Z,98048.25
2019-03-12T18:36:34.683Z,98047.29
2019-03-12T18:39:08.225Z,98038.34
2019-03-12T18:41:40.317Z,98025.76
2019-03-12T18:44:10.632Z,98023.77
2019-03-12T18:46:43.222Z,98008.11
2019-03-12T18:49:13.572Z,97999.96
2019-03-12T18:51:44.107Z,97991.50
2019-03-12T18:54:14.644Z,97984.72
2019-03-12T18:56:45.050Z,97988.72
2019-03-12T18:59:16.429Z,97982.38
2019-03-12T19:01:47.150Z,97972.77
2019-03-12T19:04:18.918Z,97971.73
2019-03-12T19:06:49.273Z,97966.77
2019-03-12T19:09:20.666Z,97968.54
2019-03-12T19:11:51.315Z,97964.91
2019-03-12T19:14:21.619Z,97963.89
2019-03-12T19:16:51.866Z,97964.52
2019-03-12T19:19:22.565Z,97965.25
2019-03-12T19:21:53.145Z,97972.09
2019-03-12T19:24:23.606Z,97974.48
2019-03-12T19:26:53.842Z,97970.69
2019-03-12T19:29:24.071Z,97960.82
2019-03-12T19:32:32.008Z,97967.28
2019-03-12T19:35:02.297Z,97967.74
2019-03-12T19:37:33.133Z,97950.98
2019-03-12T19:40:03.799Z,97958.82
2019-03-12T19:42:34.432Z,97961.41
2019-03-12T19:45:04.994Z,97944.45
2019-03-12T19:47:35.210Z,97937.38
2019-03-12T19:50:07.388Z,97949.66
2019-03-12T19:52:38.915Z,97954.73
2019-03-12T19:55:13.667Z,97948.27
2019-03-12T19:57:45.142Z,97937.86
2019-03-12T20:00:21.096Z,97953.25
2019-03-12T20:02:53.203Z,97958.05
2019-03-12T20:05:24.922Z,97964.33
2019-03-12T20:07:57.120Z,97977.92
2019-03-12T20:11:14.777Z,97982.65
2019-03-12T20:14:12.436Z,97993.40
2019-03-12T20:17:39.388Z,97995.01
2019-03-12T20:20:53.345Z,97982.39
2019-03-12T20:23:59.352Z,97975.90
2019-03-12T20:27:05.291Z,97972.59
2019-03-12T20:30:10.657Z,97972.29
2019-03-12T20:33:15.826Z,97969.09
2019-03-12T20:36:42.183Z,97950.55
2019-03-12T20:39:48.814Z,97945.10
2019-03-12T20:43:02.893Z,97944.15
2019-03-12T20:46:22.433Z,97945.63
2019-03-12T20:49:44.924Z,97946.91
2019-03-12T20:53:00.933Z,97956.27
2019-03-12T20:56:11.248Z,97941.34
2019-03-12T20:59:17.879Z,97960.95
2019-03-12T21:02:42.731Z,97954.55
2019-03-12T21:06:05.945Z,97963.99
2019-03-12T21:09:18.894Z,97971.38
2019-03-12T21:12:50.530Z,97959.16
2019-03-12T21:15:59.665Z,97959.16
2019-03-12T21:19:09.337Z,97943.31
2019-03-12T21:22:14.686Z,97936.66
2019-03-12T21:25:16.415Z,97930.98
2019-03-12T21:28:31.422Z,97923.14
2019-03-12T21:31:02.075Z,97917.19
2019-03-12T21:33:33.070Z,97904.02
2019-03-12T21:36:03.671Z,97888.05
2019-03-12T21:38:34.628Z,97877.33
2019-03-12T21:41:06.036Z,97876.13
2019-03-12T21:43:38.248Z,97872.40
2019-03-12T21:46:09.202Z,97875.05
2019-03-12T21:48:39.511Z,97870.28
2019-03-12T21:51:10.457Z,97863.45
2019-03-12T21:53:43.144Z,97858.89
2019-03-12T21:56:13.475Z,97853.60
2019-03-12T21:58:44.812Z,97840.95
2019-03-12T22:01:15.801Z,97832.08
2019-03-12T22:03:46.074Z,97813.10
2019-03-12T22:06:16.598Z,97805.40
2019-03-12T22:08:47.238Z,97793.88
2019-03-12T22:11:17.497Z,97797.89
2019-03-12T22:13:48.197Z,97780.69
2019-03-12T22:16:18.748Z,97781.55
2019-03-12T22:18:49.504Z,97784.42
2019-03-12T22:21:25.690Z,97785.67
2019-03-12T22:23:56.116Z,97779.73
2019-03-12T22:26:27.252Z,97786.91
2019-03-12T22:28:57.486Z,97782.77
2019-03-12T22:31:27.713Z,97775.73
2019-03-12T22:33:58.486Z,97784.47
2019-03-12T22:36:28.938Z,97780.09
2019-03-12T22:38:59.438Z,97784.46
2019-03-12T22:41:30.025Z,97782.61
2019-03-12T22:44:00.297Z,97784.43
2019-03-12T22:46:30.575Z,97797.56
2019-03-12T22:49:00.897Z,97803.64
2019-03-12T22:51:31.127Z,97809.67
2019-03-12T22:54:01.471Z,97816.08
2019-03-12T22:56:32.055Z,97840.95
2019-03-12T22:59:02.310Z,97835.89
2019-03-12T23:01:51.801Z,97875.13
2019-03-12T23:04:40.203Z,97916.78
2019-03-12T23:07:28.594Z,97987.61
2019-03-12T23:10:00.865Z,97961.53
2019-03-12T23:12:33.131Z,98017.55
2019-03-12T23:15:03.784Z,98066.47
2019-03-12T23:17:35.644Z,98107.33
2019-03-12T23:20:07.443Z,98093.56
2019-03-12T23:22:40.386Z,98132.28
2019-03-12T23:25:11.743Z,98141.69
2019-03-12T23:27:43.993Z,98138.38
2019-03-12T23:30:14.975Z,98146.84
2019-03-12T23:32:45.694Z,98155.64
2019-03-12T23:35:16.318Z,98167.36
2019-03-12T23:37:46.943Z,98189.56
2019-03-12T23:40:17.700Z,98189.45
2019-03-12T23:42:48.307Z,98202.81
2019-03-12T23:45:18.825Z,98225.49
2019-03-12T23:47:50.522Z,98234.77
2019-03-12T23:50:23.486Z,98247.77
2019-03-12T23:52:53.741Z,98252.31
2019-03-12T23:55:24.020Z,98257.30
2019-03-12T23:57:54.903Z,98261.90
